createdAt,value
2023-02-06T00:04:27.971Z,48.67
2023-02-06T00:10:29.792Z,32.38
2023-02-06T00:16:33.441Z,42.15
2023-02-06T00:22:35.477Z,45.67
2023-02-06T00:28:37.726Z,35.38
2023-02-06T00:34:39.467Z,47.45
2023-02-06T00:40:41.323Z,50.10
2023-02-06T00:46:43.168Z,54.08
2023-02-06T00:52:45.497Z,47.45
2023-02-06T00:58:47.525Z,40.05
2023-02-06T01:04:49.319Z,54.72
2023-02-06T01:10:51.252Z,49.90
2023-02-06T01:16:53.161Z,53.47
2023-02-06T01:22:54.921Z,49.50
2023-02-06T01:28:57.156Z,36.53
2023-02-06T01:34:58.927Z,46.17
2023-02-06T01:41:01.680Z,40.58
2023-02-06T01:47:03.466Z,44.53
2023-02-06T01:53:07.259Z,35.72
2023-02-06T01:59:09.475Z,44.63
2023-02-06T02:05:12.736Z,45.55
2023-02-06T02:11:19.127Z,37.67
2023-02-06T02:18:03.285Z,41.83
2023-02-06T02:24:08.990Z,42.25
2023-02-06T02:30:10.764Z,44.65
2023-02-06T02:36:19.519Z,47.60
2023-02-06T02:42:27.147Z,56.70
2023-02-06T02:48:34.394Z,50.13
2023-02-06T02:54:36.253Z,41.58
2023-02-06T03:01:05.035Z,42.00
2023-02-06T03:07:28.321Z,46.95
2023-02-06T03:13:38.329Z,47.50
2023-02-06T03:19:48.526Z,33.88
2023-02-06T03:25:55.639Z,44.35
2023-02-06T03:32:07.653Z,47.95
2023-02-06T03:38:10.003Z,47.80
2023-02-06T03:44:18.730Z,43.40
2023-02-06T03:50:22.664Z,38.03
2023-02-06T03:56:35.587Z,47.20
2023-02-06T04:02:39.261Z,39.70
2023-02-06T04:08:41.079Z,42.53
2023-02-06T04:14:43.335Z,42.70
2023-02-06T04:20:45.118Z,38.30
2023-02-06T04:26:46.931Z,45.92
2023-02-06T04:32:48.685Z,41.85
2023-02-06T04:38:51.970Z,37.55
2023-02-06T04:44:53.712Z,39.10
2023-02-06T04:50:55.631Z,50.45
2023-02-06T04:56:57.444Z,48.22
2023-02-06T05:02:59.174Z,43.85
2023-02-06T05:09:02.446Z,38.00
2023-02-06T05:15:05.125Z,37.88
2023-02-06T05:21:07.138Z,50.10
2023-02-06T05:27:08.954Z,45.92
2023-02-06T05:33:10.981Z,44.95
2023-02-06T05:39:12.957Z,84.18
2023-02-06T05:45:14.757Z,136.63
2023-02-06T05:51:17.020Z,120.53
2023-02-06T05:57:19.062Z,135.18
2023-02-06T06:03:21.034Z,165.90
2023-02-06T06:09:22.979Z,108.20
2023-02-06T06:15:24.816Z,151.88
2023-02-06T06:21:26.627Z,175.60
2023-02-06T06:27:28.489Z,142.10
2023-02-06T06:33:30.404Z,142.57
2023-02-06T06:39:32.465Z,174.63
2023-02-06T06:45:34.956Z,158.13
2023-02-06T06:51:37.142Z,132.88
2023-02-06T06:57:39.012Z,152.80
2023-02-06T07:03:44.223Z,166.55
2023-02-06T07:09:46.088Z,80.97
2023-02-06T07:15:47.925Z,75.43
2023-02-06T07:21:49.824Z,58.30
2023-02-06T07:27:51.702Z,51.40
2023-02-06T07:33:53.699Z,64.05
2023-02-06T07:39:55.627Z,41.97
2023-02-06T07:46:02.511Z,52.33
2023-02-06T07:52:04.536Z,49.30
2023-02-06T07:58:06.589Z,40.72
2023-02-06T08:04:08.538Z,62.95
2023-02-06T08:10:10.553Z,36.75
2023-02-06T08:16:14.817Z,55.45
2023-02-06T08:22:16.616Z,63.15
2023-02-06T08:28:18.658Z,55.00
2023-02-06T08:34:20.761Z,45.65
2023-02-06T08:40:22.676Z,53.63
2023-02-06T08:46:28.365Z,29.00
2023-02-06T08:52:30.231Z,47.30
2023-02-06T08:58:33.259Z,51.63
2023-02-06T09:04:37.537Z,49.70
2023-02-06T09:10:39.338Z,38.35
2023-02-06T09:16:41.367Z,34.80
2023-02-06T09:22:44.970Z,37.70
2023-02-06T09:28:47.563Z,54.50
2023-02-06T09:34:49.701Z,42.20
2023-02-06T09:40:54.628Z,26.40
2023-02-06T09:47:18.882Z,41.05
2023-02-06T09:53:26.365Z,33.17
2023-02-06T09:59:37.791Z,44.08
2023-02-06T10:05:58.552Z,40.40
2023-02-06T10:12:07.342Z,37.42
2023-02-06T10:18:42.148Z,44.75
2023-02-06T10:25:04.452Z,56.40
2023-02-06T10:31:18.629Z,50.63
2023-02-06T10:37:48.536Z,51.80
2023-02-06T10:43:56.555Z,73.80
2023-02-06T10:50:26.844Z,85.15
2023-02-06T10:56:36.152Z,45.08
2023-02-06T11:03:08.111Z,45.42
2023-02-06T11:09:11.128Z,52.08
2023-02-06T11:15:23.011Z,50.80
2023-02-06T11:21:46.255Z,35.30
2023-02-06T11:27:49.133Z,51.72
2023-02-06T11:33:54.318Z,46.20
2023-02-06T11:40:24.829Z,54.92
2023-02-06T11:46:32.996Z,55.40
2023-02-06T11:52:35.032Z,38.35
2023-02-06T11:58:37.013Z,33.53
2023-02-06T12:04:40.714Z,56.35
2023-02-06T12:11:08.435Z,51.30
2023-02-06T12:17:32.581Z,41.47
2023-02-06T12:24:05.718Z,31.97
2023-02-06T12:30:30.533Z,49.25
2023-02-06T12:36:37.683Z,51.45
2023-02-06T12:42:43.554Z,38.30
2023-02-06T12:49:03.879Z,28.75
2023-02-06T12:55:16.580Z,41.15
2023-02-06T13:01:34.376Z,39.22
2023-02-06T13:07:49.025Z,41.63
2023-02-06T13:14:00.886Z,38.85
2023-02-06T13:20:14.227Z,42.95
2023-02-06T13:26:16.659Z,39.60
2023-02-06T13:32:18.740Z,51.35
2023-02-06T13:38:23.375Z,39.65
2023-02-06T13:44:30.716Z,46.45
2023-02-06T13:50:48.500Z,34.25
2023-02-06T13:57:15.855Z,38.90
2023-02-06T14:03:29.540Z,31.52
2023-02-06T14:09:59.099Z,25.58
2023-02-06T14:16:29.703Z,27.67
2023-02-06T14:22:34.432Z,25.55
2023-02-06T14:35:11.795Z,24.25
2023-02-06T14:41:16.043Z,21.00
2023-02-06T14:47:23.690Z,25.98
2023-02-06T14:53:32.569Z,22.25
2023-02-06T14:59:34.453Z,15.70
2023-02-06T15:05:36.707Z,24.92
2023-02-06T15:11:38.966Z,29.58
2023-02-06T15:17:41.290Z,8.40
2023-02-06T15:23:48.686Z,16.52
2023-02-06T15:29:51.059Z,13.15
2023-02-06T15:35:55.269Z,19.63
2023-02-06T15:41:57.194Z,25.25
2023-02-06T15:48:01.832Z,25.48
2023-02-06T15:54:24.177Z,20.25
2023-02-06T16:00:31.180Z,26.00
2023-02-06T16:06:33.309Z,26.30
2023-02-06T16:12:37.656Z,31.80
2023-02-06T16:18:40.719Z,34.78
2023-02-06T16:24:43.044Z,29.38
2023-02-06T16:30:58.519Z,21.52
2023-02-06T16:37:01.110Z,24.17
2023-02-06T16:43:03.032Z,17.10
2023-02-06T16:49:13.175Z,26.85
2023-02-06T16:55:22.903Z,20.08
2023-02-06T17:01:28.688Z,18.73
2023-02-06T17:07:32.451Z,19.48
2023-02-06T17:13:34.383Z,20.90
2023-02-06T17:19:36.650Z,17.88
2023-02-06T17:25:40.568Z,21.33
2023-02-06T17:31:42.553Z,17.97
2023-02-06T17:37:44.559Z,16.10
2023-02-06T17:43:46.426Z,24.88
2023-02-06T17:49:48.584Z,24.88
2023-02-06T17:55:50.392Z,15.95
2023-02-06T18:01:53.460Z,16.80
2023-02-06T18:07:55.513Z,17.30
2023-02-06T18:13:57.786Z,24.67
2023-02-06T18:20:00.065Z,24.73
2023-02-06T18:26:03.981Z,23.23
2023-02-06T18:32:05.890Z,23.47
2023-02-06T18:38:09.886Z,17.92
2023-02-06T18:44:12.184Z,20.45
2023-02-06T18:50:14.135Z,17.92
2023-02-06T18:56:16.418Z,17.83
2023-02-06T19:02:18.415Z,16.20
2023-02-06T19:08:20.247Z,21.27
2023-02-06T19:14:25.440Z,19.35
2023-02-06T19:20:27.364Z,11.82
2023-02-06T19:26:29.749Z,24.15
2023-02-06T19:32:33.093Z,17.70
2023-02-06T19:38:35.074Z,20.67
2023-02-06T19:44:37.446Z,18.17
2023-02-06T19:50:40.665Z,18.02
2023-02-06T19:56:44.672Z,15.05
2023-02-06T20:02:46.499Z,16.23
2023-02-06T20:08:48.844Z,19.60
2023-02-06T20:14:50.652Z,17.02
2023-02-06T20:20:52.424Z,19.73
2023-02-06T20:26:57.355Z,17.52
2023-02-06T20:32:59.370Z,18.63
2023-02-06T20:39:02.325Z,18.73
2023-02-06T20:45:04.266Z,16.77
2023-02-06T20:51:06.246Z,19.17
2023-02-06T20:57:08.093Z,20.00
2023-02-06T21:03:09.901Z,25.30
2023-02-06T21:09:12.046Z,21.48
2023-02-06T21:15:13.980Z,22.88
2023-02-06T21:21:15.855Z,25.15
2023-02-06T21:27:17.619Z,23.52
2023-02-06T21:33:19.437Z,24.17
2023-02-06T21:39:25.139Z,21.52
2023-02-06T21:45:26.977Z,23.13
2023-02-06T21:51:28.949Z,21.35
2023-02-06T21:57:31.520Z,17.70
2023-02-06T22:03:34.421Z,15.18
2023-02-06T22:09:36.263Z,16.45
2023-02-06T22:15:38.268Z,21.75
2023-02-06T22:21:40.611Z,17.23
2023-02-06T22:27:43.485Z,17.48
2023-02-06T22:33:46.012Z,17.98
2023-02-06T22:39:47.777Z,17.70
2023-02-06T22:45:49.862Z,21.00
2023-02-06T22:51:51.801Z,21.38
2023-02-06T22:57:53.532Z,19.27
2023-02-06T23:03:55.804Z,22.55
2023-02-06T23:09:57.671Z,19.05
2023-02-06T23:15:59.703Z,20.60
2023-02-06T23:22:01.594Z,23.95
2023-02-06T23:28:03.567Z,21.27
2023-02-06T23:34:05.527Z,19.33
2023-02-06T23:40:08.467Z,18.02
2023-02-06T23:46:12.324Z,20.20
2023-02-06T23:52:14.419Z,20.20
2023-02-06T23:58:16.292Z,18.73
